createdAt,value
2023-05-04T00:01:39.550Z,5.50
2023-05-04T00:04:15.781Z,5.47
2023-05-04T00:06:47.538Z,6.03
2023-05-04T00:09:17.653Z,5.83
2023-05-04T00:11:47.990Z,5.23
2023-05-04T00:14:16.210Z,5.73
2023-05-04T00:16:44.488Z,6.17
2023-05-04T00:19:12.467Z,5.17
2023-05-04T00:21:45.812Z,5.90
2023-05-04T00:24:14.352Z,5.27
2023-05-04T00:26:47.646Z,5.67
2023-05-04T00:29:15.735Z,5.27
2023-05-04T00:31:44.043Z,5.43
2023-05-04T00:34:15.891Z,5.23
2023-05-04T00:36:44.121Z,4.20
2023-05-04T00:39:16.299Z,5.00
2023-05-04T00:41:46.059Z,6.20
2023-05-04T00:44:15.017Z,5.63
2023-05-04T00:46:43.349Z,4.40
2023-05-04T00:49:15.166Z,5.33
2023-05-04T00:51:43.415Z,4.93
2023-05-04T00:54:12.691Z,6.10
2023-05-04T00:56:45.770Z,5.67
2023-05-04T00:59:15.494Z,5.30
2023-05-04T01:01:46.736Z,4.60
2023-05-04T01:04:19.838Z,6.50
2023-05-04T01:06:54.555Z,5.23
2023-05-04T01:09:26.419Z,5.23
2023-05-04T01:12:00.346Z,5.37
2023-05-04T01:14:41.231Z,5.43
2023-05-04T01:17:09.843Z,5.07
2023-05-04T01:19:37.869Z,5.03
2023-05-04T01:22:14.415Z,5.40
2023-05-04T01:24:42.241Z,5.03
2023-05-04T01:27:14.516Z,5.50
2023-05-04T01:29:49.295Z,4.43
2023-05-04T01:32:21.063Z,5.33
2023-05-04T01:34:52.263Z,5.80
2023-05-04T01:37:23.855Z,5.30
2023-05-04T01:39:54.737Z,5.50
2023-05-04T01:42:22.908Z,4.87
2023-05-04T01:44:52.020Z,5.50
2023-05-04T01:47:23.516Z,5.47
2023-05-04T01:49:51.962Z,5.70
2023-05-04T01:52:21.908Z,4.80
2023-05-04T01:54:58.683Z,6.37
2023-05-04T01:57:27.051Z,5.13
2023-05-04T01:59:59.726Z,5.37
2023-05-04T02:02:30.615Z,5.03
2023-05-04T02:05:00.322Z,4.80
2023-05-04T02:07:30.060Z,5.43
2023-05-04T02:09:58.211Z,5.60
2023-05-04T02:12:31.434Z,5.20
2023-05-04T02:14:59.322Z,5.63
2023-05-04T02:17:27.169Z,5.33
2023-05-04T02:19:55.571Z,6.90
2023-05-04T02:22:26.543Z,6.10
2023-05-04T02:24:56.596Z,6.37
2023-05-04T02:27:28.362Z,6.27
2023-05-04T02:29:58.708Z,6.93
2023-05-04T02:32:27.650Z,6.27
2023-05-04T02:34:56.156Z,7.00
2023-05-04T02:37:29.667Z,7.23
2023-05-04T02:40:04.974Z,7.67
2023-05-04T02:42:33.622Z,7.20
2023-05-04T02:45:01.887Z,6.87
2023-05-04T02:47:32.858Z,7.90
2023-05-04T02:50:05.001Z,8.20
2023-05-04T02:52:46.529Z,7.37
2023-05-04T02:55:21.475Z,8.33
2023-05-04T02:57:52.227Z,8.63
2023-05-04T03:00:20.381Z,8.33
2023-05-04T03:03:05.622Z,8.37
2023-05-04T03:05:37.065Z,8.07
2023-05-04T03:08:06.813Z,8.70
2023-05-04T03:10:38.084Z,7.87
2023-05-04T03:13:06.388Z,8.60
2023-05-04T03:15:34.783Z,8.07
2023-05-04T03:18:02.991Z,7.77
2023-05-04T03:20:31.320Z,7.60
2023-05-04T03:22:59.159Z,9.23
2023-05-04T03:25:29.579Z,8.53
2023-05-04T03:28:01.787Z,8.67
2023-05-04T03:30:29.805Z,9.30
2023-05-04T03:32:58.704Z,8.77
2023-05-04T03:35:27.434Z,8.97
2023-05-04T03:37:55.240Z,9.50
2023-05-04T03:40:24.364Z,9.10
2023-05-04T03:42:59.208Z,9.17
2023-05-04T03:45:32.932Z,8.77
2023-05-04T03:48:03.701Z,7.93
2023-05-04T03:50:31.853Z,9.07
2023-05-04T03:53:00.265Z,8.03
2023-05-04T03:55:29.223Z,9.67
2023-05-04T03:57:57.455Z,10.93
2023-05-04T04:00:25.955Z,9.30
2023-05-04T04:02:56.099Z,9.83
2023-05-04T04:05:30.396Z,8.70
2023-05-04T04:08:01.582Z,8.30
2023-05-04T04:10:30.030Z,8.23
2023-05-04T04:12:58.301Z,8.20
2023-05-04T04:15:27.382Z,9.10
2023-05-04T04:17:57.070Z,9.00
2023-05-04T04:20:29.345Z,8.50
2023-05-04T04:23:02.052Z,8.03
2023-05-04T04:25:30.398Z,9.40
2023-05-04T04:27:58.623Z,9.43
2023-05-04T04:30:26.951Z,8.70
2023-05-04T04:33:03.726Z,9.10
2023-05-04T04:35:37.411Z,7.87
2023-05-04T04:38:08.218Z,9.33
2023-05-04T04:40:36.061Z,8.67
2023-05-04T04:43:05.087Z,9.90
2023-05-04T04:45:43.935Z,8.53
2023-05-04T04:48:13.464Z,9.90
2023-05-04T04:50:41.801Z,8.57
2023-05-04T04:53:13.341Z,9.33
2023-05-04T04:55:42.210Z,8.93
2023-05-04T04:58:11.144Z,8.60
2023-05-04T05:00:45.030Z,9.40
2023-05-04T05:03:16.556Z,9.27
2023-05-04T05:05:45.185Z,9.27
2023-05-04T05:08:15.593Z,9.47
2023-05-04T05:10:50.614Z,9.17
2023-05-04T05:13:25.459Z,10.27
2023-05-04T05:15:53.958Z,10.37
2023-05-04T05:18:24.975Z,9.10
2023-05-04T05:20:53.148Z,9.37
2023-05-04T05:23:25.101Z,9.90
2023-05-04T05:25:54.785Z,10.80
2023-05-04T05:28:28.483Z,10.23
2023-05-04T05:30:58.371Z,10.10
2023-05-04T05:33:28.198Z,9.57
2023-05-04T05:35:57.143Z,9.60
2023-05-04T05:38:29.757Z,9.40
2023-05-04T05:41:12.779Z,9.13
2023-05-04T05:43:51.764Z,9.27
2023-05-04T05:46:23.146Z,9.73
2023-05-04T05:48:59.518Z,9.70
2023-05-04T05:51:31.301Z,10.20
2023-05-04T05:54:02.482Z,9.37
2023-05-04T05:56:33.143Z,10.37
2023-05-04T05:59:03.605Z,12.43
2023-05-04T06:01:32.310Z,10.30
2023-05-04T06:04:02.384Z,10.53
2023-05-04T06:06:33.333Z,12.07
2023-05-04T06:09:09.545Z,10.40
2023-05-04T06:11:42.183Z,10.33
2023-05-04T06:14:12.628Z,11.13
2023-05-04T06:16:41.408Z,10.70
2023-05-04T06:19:14.093Z,10.07
2023-05-04T06:22:04.606Z,10.90
2023-05-04T06:24:36.719Z,10.60
2023-05-04T06:27:05.390Z,11.03
2023-05-04T06:29:33.878Z,9.87
2023-05-04T06:32:05.431Z,10.50
2023-05-04T06:34:35.399Z,9.90
2023-05-04T06:37:06.109Z,10.07
2023-05-04T06:39:34.747Z,10.97
2023-05-04T06:42:04.510Z,10.83
2023-05-04T06:44:46.579Z,10.50
2023-05-04T06:47:16.826Z,11.87
2023-05-04T06:49:53.028Z,11.43
2023-05-04T06:52:23.688Z,10.30
2023-05-04T06:54:52.041Z,10.13
2023-05-04T06:57:22.476Z,10.57
2023-05-04T06:59:52.557Z,10.60
2023-05-04T07:02:22.746Z,10.57
2023-05-04T07:04:53.945Z,10.60
2023-05-04T07:07:22.208Z,10.93
2023-05-04T07:09:50.787Z,11.80
2023-05-04T07:12:19.819Z,11.20
2023-05-04T07:14:49.275Z,10.03
2023-05-04T07:17:21.443Z,10.23
2023-05-04T07:19:52.786Z,10.30
2023-05-04T07:22:24.663Z,10.73
2023-05-04T07:24:56.745Z,10.40
2023-05-04T07:27:28.287Z,10.00
2023-05-04T07:29:59.653Z,9.90
2023-05-04T07:32:30.923Z,10.77
2023-05-04T07:35:00.405Z,10.63
2023-05-04T07:37:36.745Z,10.77
2023-05-04T07:40:07.841Z,10.37
2023-05-04T07:42:36.183Z,9.13
2023-05-04T07:45:08.629Z,10.67
2023-05-04T07:47:37.202Z,9.27
2023-05-04T07:50:08.462Z,10.87
2023-05-04T07:52:38.342Z,9.87
2023-05-04T07:55:08.210Z,10.07
2023-05-04T07:57:40.992Z,10.70
2023-05-04T08:00:11.406Z,10.47
2023-05-04T08:02:39.803Z,11.40
2023-05-04T08:05:08.969Z,9.70
2023-05-04T08:07:44.512Z,11.77
2023-05-04T08:10:15.794Z,9.70
2023-05-04T08:12:46.013Z,10.57
2023-05-04T08:15:17.130Z,10.53
2023-05-04T08:17:45.711Z,10.17
2023-05-04T08:20:14.853Z,9.80
2023-05-04T08:22:47.646Z,9.90
2023-05-04T08:25:16.040Z,10.67
2023-05-04T08:27:46.752Z,10.33
2023-05-04T08:30:16.001Z,9.57
2023-05-04T08:32:47.080Z,11.50
2023-05-04T08:35:20.690Z,10.43
2023-05-04T08:37:51.691Z,9.73
2023-05-04T08:40:26.621Z,9.20
2023-05-04T08:42:59.333Z,9.10
2023-05-04T08:45:27.446Z,9.20
2023-05-04T08:47:58.398Z,8.97
2023-05-04T08:50:30.033Z,6.73
2023-05-04T08:53:03.843Z,6.30
2023-05-04T08:55:33.483Z,6.20
2023-05-04T08:58:03.695Z,6.20
2023-05-04T09:00:36.837Z,5.13
2023-05-04T09:03:07.932Z,5.70
2023-05-04T09:05:39.218Z,6.10
2023-05-04T09:08:10.640Z,5.80
2023-05-04T09:10:44.831Z,4.93
2023-05-04T09:13:16.945Z,5.70
2023-05-04T09:15:55.324Z,5.73
2023-05-04T09:18:24.316Z,5.80
2023-05-04T09:20:58.066Z,5.00
2023-05-04T09:23:28.846Z,7.10
2023-05-04T09:25:57.821Z,4.90
2023-05-04T09:28:37.133Z,6.20
2023-05-04T09:31:08.469Z,6.40
2023-05-04T09:33:44.281Z,5.87
2023-05-04T09:36:21.330Z,5.90
2023-05-04T09:38:53.236Z,7.03
2023-05-04T09:41:36.680Z,6.20
2023-05-04T09:44:06.647Z,5.57
2023-05-04T09:46:37.722Z,6.10
2023-05-04T09:49:08.160Z,5.57
2023-05-04T09:51:36.740Z,6.43
2023-05-04T09:54:09.391Z,6.30
2023-05-04T09:56:42.939Z,5.80
2023-05-04T09:59:11.291Z,6.27
2023-05-04T10:01:44.709Z,6.57
2023-05-04T10:04:15.723Z,5.67
2023-05-04T10:06:45.298Z,5.87
2023-05-04T10:09:16.065Z,5.93
2023-05-04T10:11:47.370Z,6.40
2023-05-04T10:14:15.454Z,5.57
2023-05-04T10:16:52.226Z,6.37
2023-05-04T10:19:50.359Z,5.60
2023-05-04T10:22:35.113Z,5.20
2023-05-04T10:25:27.503Z,5.57
2023-05-04T10:28:04.664Z,5.00
2023-05-04T10:30:32.999Z,5.80
2023-05-04T10:33:04.533Z,4.87
2023-05-04T10:35:38.785Z,6.10
2023-05-04T10:38:07.553Z,5.83
2023-05-04T10:40:39.705Z,6.37
2023-05-04T10:43:09.418Z,5.90
2023-05-04T10:45:41.264Z,6.13
2023-05-04T10:48:14.078Z,5.30
2023-05-04T10:50:48.430Z,5.13
2023-05-04T10:53:26.945Z,4.70
2023-05-04T10:55:58.735Z,6.03
2023-05-04T10:58:30.523Z,5.77
2023-05-04T11:01:03.036Z,4.83
2023-05-04T11:03:42.814Z,4.80
2023-05-04T11:06:23.352Z,5.20
2023-05-04T11:09:12.425Z,4.47
2023-05-04T11:11:41.623Z,5.60
2023-05-04T11:14:14.086Z,5.80
2023-05-04T11:16:41.916Z,5.87
2023-05-04T11:19:12.573Z,5.37
2023-05-04T11:21:54.367Z,5.83
2023-05-04T11:24:23.047Z,5.97
2023-05-04T11:26:52.807Z,4.40
2023-05-04T11:29:20.793Z,4.90
2023-05-04T11:32:00.187Z,5.00
2023-05-04T11:34:29.370Z,5.77
2023-05-04T11:36:59.731Z,5.30
2023-05-04T11:39:28.390Z,4.50
2023-05-04T11:41:58.867Z,4.80
2023-05-04T11:44:27.134Z,4.63
2023-05-04T11:46:56.746Z,4.67
2023-05-04T11:49:31.055Z,4.83
2023-05-04T11:52:10.042Z,4.60
2023-05-04T11:54:38.654Z,4.90
2023-05-04T11:57:08.625Z,5.20
2023-05-04T11:59:53.472Z,4.63
2023-05-04T12:02:25.846Z,5.43
2023-05-04T12:04:56.585Z,5.07
2023-05-04T12:07:33.018Z,3.97
2023-05-04T12:10:01.535Z,5.03
2023-05-04T12:12:39.112Z,4.30
2023-05-04T12:15:13.128Z,4.40
2023-05-04T12:17:42.081Z,4.17
2023-05-04T12:20:13.200Z,4.50
2023-05-04T12:22:41.183Z,4.37
2023-05-04T12:25:13.189Z,4.00
2023-05-04T12:27:46.102Z,3.77
2023-05-04T12:30:17.404Z,5.00
2023-05-04T12:32:49.473Z,4.53
2023-05-04T12:35:20.822Z,4.80
2023-05-04T12:37:49.119Z,4.40
2023-05-04T12:40:27.831Z,5.03
2023-05-04T12:43:02.010Z,4.03
2023-05-04T12:45:36.071Z,4.10
2023-05-04T12:48:07.378Z,4.30
2023-05-04T12:50:36.043Z,4.50
2023-05-04T12:53:09.204Z,4.10
2023-05-04T12:55:37.617Z,4.47
2023-05-04T12:58:10.284Z,4.00
2023-05-04T13:00:45.859Z,3.90
2023-05-04T13:03:19.357Z,4.17
2023-05-04T13:05:52.900Z,4.23
2023-05-04T13:08:22.541Z,4.47
2023-05-04T13:10:50.646Z,3.87
2023-05-04T13:13:28.788Z,3.90
2023-05-04T13:15:57.334Z,4.17
2023-05-04T13:18:40.046Z,3.87
2023-05-04T13:21:18.333Z,3.33
2023-05-04T13:23:48.424Z,4.05
2023-05-04T13:26:20.524Z,3.67
2023-05-04T13:28:51.742Z,3.50
2023-05-04T13:31:20.706Z,4.30
2023-05-04T13:33:50.794Z,3.85
2023-05-04T13:36:19.267Z,3.90
2023-05-04T13:38:50.655Z,3.80
2023-05-04T13:41:19.642Z,3.83
2023-05-04T13:43:49.677Z,4.03
2023-05-04T13:46:18.859Z,3.88
2023-05-04T13:48:55.186Z,4.18
2023-05-04T13:51:28.818Z,4.93
2023-05-04T13:53:56.629Z,3.95
2023-05-04T13:56:28.189Z,5.00
2023-05-04T13:58:59.844Z,3.80
2023-05-04T14:01:34.270Z,3.60
2023-05-04T14:04:08.129Z,3.30
2023-05-04T14:06:36.897Z,3.58
2023-05-04T14:09:10.467Z,3.53
2023-05-04T14:11:48.944Z,3.45
2023-05-04T14:14:24.609Z,4.07
2023-05-04T14:16:52.803Z,4.25
2023-05-04T14:19:30.581Z,3.55
2023-05-04T14:21:59.139Z,3.55
2023-05-04T14:24:36.658Z,3.33
2023-05-04T14:27:04.905Z,4.57
2023-05-04T14:29:40.059Z,3.90
2023-05-04T14:32:14.000Z,4.05
2023-05-04T14:34:42.185Z,3.50
2023-05-04T14:37:10.231Z,3.45
2023-05-04T14:39:44.172Z,3.90
2023-05-04T14:42:23.078Z,4.20
2023-05-04T14:44:53.953Z,4.32
2023-05-04T14:47:22.189Z,4.72
2023-05-04T14:49:54.755Z,4.30
2023-05-04T14:52:26.905Z,4.25
2023-05-04T14:54:55.000Z,4.63
2023-05-04T14:57:30.483Z,4.50
2023-05-04T15:00:00.888Z,5.80
2023-05-04T15:02:30.894Z,4.25
2023-05-04T15:05:07.592Z,4.38
2023-05-04T15:07:37.212Z,3.90
2023-05-04T15:10:07.855Z,3.75
2023-05-04T15:12:41.459Z,3.47
2023-05-04T15:15:13.091Z,4.18
2023-05-04T15:17:46.906Z,4.60
2023-05-04T15:20:15.901Z,4.07
2023-05-04T15:22:48.976Z,3.67
2023-05-04T15:25:17.312Z,4.03
2023-05-04T15:27:45.673Z,5.67
2023-05-04T15:30:24.299Z,4.23
2023-05-04T15:32:58.226Z,4.60
2023-05-04T15:35:28.629Z,5.63
2023-05-04T15:37:59.592Z,4.30
2023-05-04T15:40:30.050Z,4.07
2023-05-04T15:43:14.446Z,5.50
2023-05-04T15:45:44.640Z,4.67
2023-05-04T15:48:17.000Z,5.00
2023-05-04T15:50:49.869Z,4.37
2023-05-04T15:53:22.088Z,5.32
2023-05-04T15:55:57.353Z,3.92
2023-05-04T15:58:25.813Z,5.32
2023-05-04T16:01:10.727Z,5.18
2023-05-04T16:03:45.052Z,5.37
2023-05-04T16:06:13.264Z,5.40
2023-05-04T16:08:41.513Z,5.70
2023-05-04T16:11:18.209Z,5.10
2023-05-04T16:13:46.260Z,4.90
2023-05-04T16:16:16.130Z,5.30
2023-05-04T16:18:46.658Z,5.23
2023-05-04T16:21:21.412Z,5.63
2023-05-04T16:23:59.896Z,5.40
2023-05-04T16:26:28.047Z,4.90
2023-05-04T16:28:56.716Z,5.17
2023-05-04T16:31:26.776Z,5.63
2023-05-04T16:33:55.929Z,5.13
2023-05-04T16:36:49.462Z,5.07
2023-05-04T16:39:18.858Z,5.23
2023-05-04T16:41:51.089Z,4.47
2023-05-04T16:44:21.312Z,5.27
2023-05-04T16:46:51.919Z,5.33
2023-05-04T16:49:24.151Z,5.50
2023-05-04T16:51:57.618Z,4.90
2023-05-04T16:54:33.780Z,5.30
2023-05-04T16:57:03.727Z,6.03
2023-05-04T16:59:31.552Z,4.67
2023-05-04T17:02:05.379Z,6.00
2023-05-04T17:04:34.557Z,4.90
2023-05-04T17:07:03.303Z,5.50
2023-05-04T17:09:31.578Z,5.47
2023-05-04T17:12:03.493Z,4.97
2023-05-04T17:14:35.082Z,5.57
2023-05-04T17:17:04.978Z,5.47
2023-05-04T17:19:49.252Z,4.60
2023-05-04T17:22:22.209Z,5.13
2023-05-04T17:24:53.439Z,5.27
2023-05-04T17:27:28.448Z,5.33
2023-05-04T17:30:02.076Z,5.60
2023-05-04T17:32:33.720Z,5.70
2023-05-04T17:35:16.547Z,5.60
2023-05-04T17:37:55.958Z,6.97
2023-05-04T17:40:26.112Z,5.00
2023-05-04T17:42:54.337Z,5.30
2023-05-04T17:45:22.602Z,5.60
2023-05-04T17:47:56.856Z,5.83
2023-05-04T17:50:25.802Z,5.20
2023-05-04T17:52:59.380Z,5.27
2023-05-04T17:55:28.626Z,5.23
2023-05-04T17:57:59.572Z,5.67
2023-05-04T18:00:38.462Z,5.70
2023-05-04T18:03:08.635Z,5.70
2023-05-04T18:05:39.289Z,5.90
2023-05-04T18:08:10.229Z,5.77
2023-05-04T18:10:39.913Z,6.23
2023-05-04T18:13:08.645Z,6.17
2023-05-04T18:15:37.467Z,5.87
2023-05-04T18:18:18.988Z,5.67
2023-05-04T18:20:49.654Z,5.50
2023-05-04T18:23:22.123Z,5.63
2023-05-04T18:25:50.379Z,5.40
2023-05-04T18:28:21.440Z,5.67
2023-05-04T18:30:49.832Z,5.60
2023-05-04T18:33:19.745Z,6.67
2023-05-04T18:35:50.501Z,6.73
2023-05-04T18:38:19.701Z,5.97
2023-05-04T18:40:50.498Z,5.60
2023-05-04T18:43:19.094Z,6.17
2023-05-04T18:45:56.146Z,5.87
2023-05-04T18:48:31.772Z,6.20
2023-05-04T18:51:08.046Z,5.77
2023-05-04T18:53:39.195Z,5.63
2023-05-04T18:56:13.235Z,5.33
2023-05-04T18:58:41.287Z,5.20
2023-05-04T19:01:09.382Z,5.87
2023-05-04T19:03:40.829Z,5.23
2023-05-04T19:06:10.720Z,7.10
2023-05-04T19:08:45.090Z,5.80
2023-05-04T19:11:18.484Z,6.37
2023-05-04T19:14:03.088Z,6.50
2023-05-04T19:16:31.261Z,6.13
2023-05-04T19:19:04.132Z,7.20
2023-05-04T19:21:32.177Z,6.43
2023-05-04T19:24:06.456Z,7.10
2023-05-04T19:26:34.757Z,7.20
2023-05-04T19:29:03.004Z,7.60
2023-05-04T19:31:33.997Z,6.33
2023-05-04T19:34:04.934Z,6.57
2023-05-04T19:36:34.710Z,6.67
2023-05-04T19:39:05.739Z,6.87
2023-05-04T19:41:36.424Z,6.93
2023-05-04T19:44:10.387Z,7.30
2023-05-04T19:46:42.918Z,6.10
2023-05-04T19:49:14.121Z,6.43
2023-05-04T19:51:42.577Z,7.53
2023-05-04T19:54:15.176Z,7.60
2023-05-04T19:56:43.185Z,7.30
2023-05-04T19:59:11.574Z,6.97
2023-05-04T20:01:39.706Z,7.27
2023-05-04T20:04:08.742Z,6.70
2023-05-04T20:06:43.502Z,7.13
2023-05-04T20:09:12.026Z,6.73
2023-05-04T20:11:41.499Z,5.90
2023-05-04T20:14:14.065Z,6.70
2023-05-04T20:16:45.139Z,6.00
2023-05-04T20:19:21.554Z,6.20
2023-05-04T20:21:55.788Z,6.97
2023-05-04T20:24:28.701Z,6.33
2023-05-04T20:26:56.913Z,6.40
2023-05-04T20:29:25.049Z,7.50
2023-05-04T20:31:53.568Z,6.00
2023-05-04T20:34:28.520Z,5.40
2023-05-04T20:37:00.840Z,6.20
2023-05-04T20:39:29.302Z,6.83
2023-05-04T20:42:00.253Z,7.03
2023-05-04T20:44:28.407Z,6.70
2023-05-04T20:46:57.953Z,6.37
2023-05-04T20:49:38.637Z,6.70
2023-05-04T20:52:11.413Z,6.50
2023-05-04T20:54:40.469Z,9.17
2023-05-04T20:57:09.031Z,6.27
2023-05-04T20:59:47.122Z,6.13
2023-05-04T21:02:18.725Z,5.77
2023-05-04T21:04:50.111Z,6.10
2023-05-04T21:07:22.746Z,6.70
2023-05-04T21:09:53.828Z,5.67
2023-05-04T21:12:22.120Z,6.17
2023-05-04T21:14:53.187Z,6.10
2023-05-04T21:17:21.519Z,5.83
2023-05-04T21:19:52.909Z,5.73
2023-05-04T21:22:26.560Z,5.67
2023-05-04T21:24:57.789Z,6.60
2023-05-04T21:27:26.562Z,5.47
2023-05-04T21:29:57.392Z,6.17
2023-05-04T21:32:27.728Z,5.30
2023-05-04T21:35:01.655Z,6.23
2023-05-04T21:37:31.428Z,5.87
2023-05-04T21:39:59.566Z,5.57
2023-05-04T21:42:27.998Z,6.10
2023-05-04T21:44:56.279Z,6.00
2023-05-04T21:47:28.050Z,6.10
2023-05-04T21:49:56.074Z,6.00
2023-05-04T21:52:25.593Z,5.70
2023-05-04T21:54:57.767Z,6.70
2023-05-04T21:57:31.541Z,6.87
2023-05-04T22:00:19.585Z,6.70
2023-05-04T22:02:50.166Z,6.53
2023-05-04T22:05:18.507Z,6.17
2023-05-04T22:07:52.382Z,5.70
2023-05-04T22:10:22.490Z,6.63
2023-05-04T22:12:50.957Z,5.80
2023-05-04T22:15:19.420Z,6.10
2023-05-04T22:17:48.826Z,6.97
2023-05-04T22:20:18.469Z,6.17
2023-05-04T22:22:47.888Z,5.83
2023-05-04T22:25:16.082Z,5.93
2023-05-04T22:27:49.438Z,6.67
2023-05-04T22:30:17.963Z,5.77
2023-05-04T22:32:46.815Z,6.17
2023-05-04T22:35:17.610Z,7.30
2023-05-04T22:37:46.297Z,6.77
2023-05-04T22:40:17.485Z,6.70
2023-05-04T22:42:51.658Z,6.50
2023-05-04T22:45:24.626Z,6.47
2023-05-04T22:47:57.358Z,6.47
2023-05-04T22:50:26.170Z,6.40
2023-05-04T22:52:56.135Z,6.27
2023-05-04T22:55:24.532Z,7.10
2023-05-04T22:57:57.391Z,5.87
2023-05-04T23:00:30.682Z,6.50
2023-05-04T23:03:01.888Z,6.33
2023-05-04T23:05:31.280Z,6.33
2023-05-04T23:08:00.609Z,6.30
2023-05-04T23:10:32.117Z,7.57
2023-05-04T23:13:02.677Z,6.30
2023-05-04T23:15:31.602Z,6.70
2023-05-04T23:18:07.328Z,6.20
2023-05-04T23:20:35.850Z,6.43
2023-05-04T23:23:03.918Z,6.17
2023-05-04T23:25:33.180Z,5.43
2023-05-04T23:28:02.933Z,6.03
2023-05-04T23:30:31.260Z,6.50
2023-05-04T23:33:01.627Z,6.10
2023-05-04T23:35:32.962Z,6.17
2023-05-04T23:38:04.158Z,6.90
2023-05-04T23:40:34.485Z,5.93
2023-05-04T23:43:19.465Z,6.80
2023-05-04T23:45:47.921Z,5.87
2023-05-04T23:48:24.980Z,5.57
2023-05-04T23:50:54.241Z,6.40
2023-05-04T23:53:26.443Z,6.30
2023-05-04T23:56:07.575Z,5.03
2023-05-04T23:58:39.638Z,6.57
